createdAt,value
2018-09-24T00:00:52.055Z,24.22
2018-09-24T00:15:50.434Z,24.19
2018-09-24T00:30:50.446Z,24.13
2018-09-24T00:45:51.078Z,24.14
2018-09-24T01:00:50.844Z,24.11
2018-09-24T01:15:52.833Z,24.04
2018-09-24T01:30:52.183Z,24.04
2018-09-24T01:45:51.177Z,23.97
2018-09-24T02:00:50.054Z,23.88
2018-09-24T02:15:52.086Z,23.90
2018-09-24T02:30:50.183Z,23.84
2018-09-24T02:45:50.244Z,23.75
2018-09-24T03:00:50.793Z,23.79
2018-09-24T03:15:59.164Z,23.74
2018-09-24T03:30:50.995Z,23.58
2018-09-24T03:45:50.575Z,23.65
2018-09-24T04:00:51.468Z,23.62
2018-09-24T04:15:55.937Z,23.56
2018-09-24T04:30:56.211Z,21.92
2018-09-24T04:45:55.970Z,20.74
2018-09-24T05:00:56.505Z,20.19
2018-09-24T05:30:56.611Z,23.69
2018-09-24T05:45:56.495Z,24.54
2018-09-24T06:00:55.757Z,25.37
2018-09-24T06:15:55.861Z,26.40
2018-09-24T06:30:56.311Z,27.12
2018-09-24T06:45:55.865Z,27.40
2018-09-24T07:00:58.059Z,27.96
2018-09-24T07:15:56.193Z,28.55
2018-09-24T07:30:56.005Z,28.95
2018-09-24T07:45:56.051Z,29.32
2018-09-24T08:00:56.524Z,29.54
2018-09-24T08:15:56.437Z,30.36
2018-09-24T08:31:00.308Z,30.63
2018-09-24T08:45:56.597Z,31.29
2018-09-24T09:00:55.724Z,31.62
2018-09-24T09:15:55.713Z,31.83
2018-09-24T09:30:55.847Z,32.21
2018-09-24T09:45:55.849Z,32.41
2018-09-24T10:00:56.263Z,33.01
2018-09-24T10:15:56.095Z,32.83
2018-09-24T10:30:56.100Z,33.01
2018-09-24T10:45:56.458Z,31.55
2018-09-24T11:15:56.493Z,31.50
2018-09-24T11:30:57.001Z,31.74
2018-09-24T11:45:56.372Z,30.76
2018-09-24T12:00:58.263Z,29.17
2018-09-24T12:15:55.808Z,28.03
2018-09-24T12:30:55.710Z,27.08
2018-09-24T12:45:56.040Z,26.43
2018-09-24T13:00:56.159Z,25.82
2018-09-24T13:15:56.304Z,25.26
2018-09-24T13:30:56.388Z,23.93
2018-09-24T13:45:56.157Z,21.76
2018-09-24T14:00:56.445Z,20.64
2018-09-24T14:30:56.678Z,21.15
2018-09-24T14:45:58.720Z,20.68
2018-09-24T15:00:57.800Z,19.72
2018-09-24T16:30:56.164Z,16.82
2018-09-24T16:45:56.187Z,16.90
2018-09-24T17:00:57.453Z,16.37
2018-09-24T17:15:56.511Z,16.12
2018-09-24T17:45:56.650Z,15.57
2018-09-24T18:00:55.922Z,15.41
2018-09-24T18:15:55.946Z,15.38
2018-09-24T18:30:55.905Z,15.28
2018-09-24T18:45:55.717Z,15.20
2018-09-24T19:00:58.218Z,14.94
2018-09-24T19:15:58.174Z,14.77
2018-09-24T19:30:57.703Z,14.72
2018-09-24T19:45:56.248Z,14.55
2018-09-24T20:00:56.492Z,14.41
2018-09-24T20:15:56.534Z,14.30
2018-09-24T20:30:58.725Z,13.96
2018-09-24T20:45:56.503Z,13.47
2018-09-24T21:00:55.837Z,13.02
2018-09-24T21:15:55.835Z,12.95
2018-09-24T21:30:55.827Z,12.94
2018-09-24T21:45:55.872Z,12.73
2018-09-24T22:00:58.193Z,12.52
2018-09-24T22:15:57.255Z,12.43
2018-09-24T22:30:58.454Z,12.35
2018-09-24T22:45:55.990Z,12.35
2018-09-24T23:00:56.377Z,12.30
2018-09-24T23:15:56.434Z,12.28
2018-09-24T23:30:56.491Z,12.28
2018-09-24T23:45:56.422Z,12.23
